sensor_id;sensor_type;location;lat;lon;timestamp;P1;durP1;ratioP1;P2;durP2;ratioP2
11481;SDS011;5797;51.662;6.748;2023-06-14T00:00:45;7.43;;;4.67;;
11481;SDS011;5797;51.662;6.748;2023-06-14T00:03:15;11.93;;;4.80;;
11481;SDS011;5797;51.662;6.748;2023-06-14T00:05:45;6.10;;;4.60;;
11481;SDS011;5797;51.662;6.748;2023-06-14T00:08:14;7.53;;;4.47;;
11481;SDS011;5797;51.662;6.748;2023-06-14T00:10:42;7.17;;;4.60;;
11481;SDS011;5797;51.662;6.748;2023-06-14T00:13:12;5.30;;;4.30;;
11481;SDS011;5797;51.662;6.748;2023-06-14T00:15:41;6.10;;;4.40;;
11481;SDS011;5797;51.662;6.748;2023-06-14T00:18:10;8.63;;;4.70;;
11481;SDS011;5797;51.662;6.748;2023-06-14T00:20:39;4.67;;;3.90;;
11481;SDS011;5797;51.662;6.748;2023-06-14T00:23:09;5.07;;;4.03;;
11481;SDS011;5797;51.662;6.748;2023-06-14T00:25:38;9.93;;;4.20;;
11481;SDS011;5797;51.662;6.748;2023-06-14T00:28:07;5.17;;;4.23;;
11481;SDS011;5797;51.662;6.748;2023-06-14T00:30:37;6.43;;;4.10;;
11481;SDS011;5797;51.662;6.748;2023-06-14T00:33:06;10.07;;;4.37;;
11481;SDS011;5797;51.662;6.748;2023-06-14T00:35:35;8.30;;;3.90;;
11481;SDS011;5797;51.662;6.748;2023-06-14T00:38:04;4.53;;;3.43;;
11481;SDS011;5797;51.662;6.748;2023-06-14T00:40:32;9.13;;;3.50;;
11481;SDS011;5797;51.662;6.748;2023-06-14T00:43:01;5.73;;;4.13;;
11481;SDS011;5797;51.662;6.748;2023-06-14T00:45:30;9.57;;;4.10;;
11481;SDS011;5797;51.662;6.748;2023-06-14T00:48:04;7.30;;;3.90;;
11481;SDS011;5797;51.662;6.748;2023-06-14T00:50:34;6.67;;;3.80;;
11481;SDS011;5797;51.662;6.748;2023-06-14T00:53:03;5.03;;;3.53;;
11481;SDS011;5797;51.662;6.748;2023-06-14T00:55:32;5.80;;;3.73;;
11481;SDS011;5797;51.662;6.748;2023-06-14T00:58:01;3.80;;;3.30;;
11481;SDS011;5797;51.662;6.748;2023-06-14T01:00:29;5.57;;;3.63;;
11481;SDS011;5797;51.662;6.748;2023-06-14T01:02:58;5.30;;;3.60;;
11481;SDS011;5797;51.662;6.748;2023-06-14T01:05:30;4.97;;;3.50;;
11481;SDS011;5797;51.662;6.748;2023-06-14T01:08:05;6.90;;;3.57;;
11481;SDS011;5797;51.662;6.748;2023-06-14T01:10:45;6.73;;;3.63;;
11481;SDS011;5797;51.662;6.748;2023-06-14T01:13:20;6.03;;;3.80;;
11481;SDS011;5797;51.662;6.748;2023-06-14T01:15:52;6.93;;;3.50;;
11481;SDS011;5797;51.662;6.748;2023-06-14T01:18:21;5.33;;;3.23;;
11481;SDS011;5797;51.662;6.748;2023-06-14T01:20:52;5.67;;;3.90;;
11481;SDS011;5797;51.662;6.748;2023-06-14T01:23:25;5.00;;;3.43;;
11481;SDS011;5797;51.662;6.748;2023-06-14T01:25:59;4.23;;;3.47;;
11481;SDS011;5797;51.662;6.748;2023-06-14T01:28:31;5.87;;;3.63;;
11481;SDS011;5797;51.662;6.748;2023-06-14T01:31:01;4.40;;;3.37;;
11481;SDS011;5797;51.662;6.748;2023-06-14T01:33:33;7.57;;;3.60;;
11481;SDS011;5797;51.662;6.748;2023-06-14T01:36:02;4.50;;;3.30;;
11481;SDS011;5797;51.662;6.748;2023-06-14T01:38:33;6.40;;;3.50;;
11481;SDS011;5797;51.662;6.748;2023-06-14T01:41:02;7.87;;;4.00;;
11481;SDS011;5797;51.662;6.748;2023-06-14T01:43:31;5.07;;;3.67;;
11481;SDS011;5797;51.662;6.748;2023-06-14T01:46:03;4.40;;;3.60;;
11481;SDS011;5797;51.662;6.748;2023-06-14T01:48:33;6.67;;;3.47;;
11481;SDS011;5797;51.662;6.748;2023-06-14T01:51:03;6.20;;;3.40;;
11481;SDS011;5797;51.662;6.748;2023-06-14T01:53:33;6.23;;;3.60;;
11481;SDS011;5797;51.662;6.748;2023-06-14T01:56:02;5.43;;;3.60;;
11481;SDS011;5797;51.662;6.748;2023-06-14T01:58:31;6.43;;;3.37;;
11481;SDS011;5797;51.662;6.748;2023-06-14T02:01:00;4.77;;;3.30;;
11481;SDS011;5797;51.662;6.748;2023-06-14T02:03:29;4.20;;;3.33;;
11481;SDS011;5797;51.662;6.748;2023-06-14T02:05:58;4.17;;;2.90;;
11481;SDS011;5797;51.662;6.748;2023-06-14T02:08:27;6.33;;;3.40;;
11481;SDS011;5797;51.662;6.748;2023-06-14T02:11:01;7.00;;;3.50;;
11481;SDS011;5797;51.662;6.748;2023-06-14T02:13:29;4.87;;;3.50;;
11481;SDS011;5797;51.662;6.748;2023-06-14T02:15:58;6.73;;;3.30;;
11481;SDS011;5797;51.662;6.748;2023-06-14T02:18:28;3.90;;;3.37;;
11481;SDS011;5797;51.662;6.748;2023-06-14T02:20:57;4.37;;;3.20;;
11481;SDS011;5797;51.662;6.748;2023-06-14T02:23:25;6.87;;;3.40;;
11481;SDS011;5797;51.662;6.748;2023-06-14T02:25:55;4.63;;;3.83;;
11481;SDS011;5797;51.662;6.748;2023-06-14T02:28:25;5.33;;;3.40;;
11481;SDS011;5797;51.662;6.748;2023-06-14T02:30:54;4.93;;;3.40;;
11481;SDS011;5797;51.662;6.748;2023-06-14T02:33:23;3.47;;;2.90;;
11481;SDS011;5797;51.662;6.748;2023-06-14T02:35:52;4.53;;;3.10;;
11481;SDS011;5797;51.662;6.748;2023-06-14T02:38:21;4.23;;;3.30;;
11481;SDS011;5797;51.662;6.748;2023-06-14T02:40:49;6.20;;;3.50;;
11481;SDS011;5797;51.662;6.748;2023-06-14T02:43:19;6.20;;;3.33;;
11481;SDS011;5797;51.662;6.748;2023-06-14T02:45:49;5.27;;;3.57;;
11481;SDS011;5797;51.662;6.748;2023-06-14T02:48:18;4.07;;;3.40;;
11481;SDS011;5797;51.662;6.748;2023-06-14T02:50:47;7.40;;;3.20;;
11481;SDS011;5797;51.662;6.748;2023-06-14T02:53:16;4.60;;;3.20;;
11481;SDS011;5797;51.662;6.748;2023-06-14T02:55:45;5.67;;;3.43;;
11481;SDS011;5797;51.662;6.748;2023-06-14T02:58:14;4.50;;;3.30;;
11481;SDS011;5797;51.662;6.748;2023-06-14T03:00:43;7.60;;;3.43;;
11481;SDS011;5797;51.662;6.748;2023-06-14T03:03:14;5.87;;;3.37;;
11481;SDS011;5797;51.662;6.748;2023-06-14T03:05:51;6.50;;;3.60;;
11481;SDS011;5797;51.662;6.748;2023-06-14T03:08:24;4.67;;;3.43;;
11481;SDS011;5797;51.662;6.748;2023-06-14T03:10:59;4.63;;;3.10;;
11481;SDS011;5797;51.662;6.748;2023-06-14T03:13:29;4.77;;;3.37;;
11481;SDS011;5797;51.662;6.748;2023-06-14T03:15:59;8.60;;;3.33;;
11481;SDS011;5797;51.662;6.748;2023-06-14T03:18:34;4.90;;;3.33;;
11481;SDS011;5797;51.662;6.748;2023-06-14T03:21:05;7.40;;;3.67;;
11481;SDS011;5797;51.662;6.748;2023-06-14T03:23:39;5.47;;;3.60;;
11481;SDS011;5797;51.662;6.748;2023-06-14T03:26:08;4.23;;;3.30;;
11481;SDS011;5797;51.662;6.748;2023-06-14T03:28:41;5.57;;;3.10;;
11481;SDS011;5797;51.662;6.748;2023-06-14T03:31:10;4.43;;;3.43;;
11481;SDS011;5797;51.662;6.748;2023-06-14T03:33:41;3.97;;;3.17;;
11481;SDS011;5797;51.662;6.748;2023-06-14T03:36:09;6.13;;;3.30;;
11481;SDS011;5797;51.662;6.748;2023-06-14T03:38:39;4.90;;;3.03;;
11481;SDS011;5797;51.662;6.748;2023-06-14T03:41:10;6.47;;;3.20;;
11481;SDS011;5797;51.662;6.748;2023-06-14T03:43:39;3.53;;;2.90;;
11481;SDS011;5797;51.662;6.748;2023-06-14T03:46:08;4.17;;;3.40;;
11481;SDS011;5797;51.662;6.748;2023-06-14T03:48:36;6.23;;;3.10;;
11481;SDS011;5797;51.662;6.748;2023-06-14T03:51:08;5.27;;;3.37;;
11481;SDS011;5797;51.662;6.748;2023-06-14T03:53:38;3.73;;;3.30;;
11481;SDS011;5797;51.662;6.748;2023-06-14T03:56:20;3.27;;;2.87;;
11481;SDS011;5797;51.662;6.748;2023-06-14T03:58:50;3.53;;;3.17;;
11481;SDS011;5797;51.662;6.748;2023-06-14T04:01:22;8.27;;;3.00;;
11481;SDS011;5797;51.662;6.748;2023-06-14T04:03:58;3.80;;;2.90;;
11481;SDS011;5797;51.662;6.748;2023-06-14T04:06:29;5.03;;;3.40;;
11481;SDS011;5797;51.662;6.748;2023-06-14T04:08:59;6.10;;;3.17;;
11481;SDS011;5797;51.662;6.748;2023-06-14T04:11:32;5.33;;;3.07;;
11481;SDS011;5797;51.662;6.748;2023-06-14T04:14:01;5.67;;;3.13;;
11481;SDS011;5797;51.662;6.748;2023-06-14T04:16:31;3.93;;;2.90;;
11481;SDS011;5797;51.662;6.748;2023-06-14T04:19:00;8.00;;;3.13;;
11481;SDS011;5797;51.662;6.748;2023-06-14T04:21:30;5.70;;;3.13;;
11481;SDS011;5797;51.662;6.748;2023-06-14T04:24:03;6.20;;;2.97;;
11481;SDS011;5797;51.662;6.748;2023-06-14T04:26:33;5.73;;;3.20;;
11481;SDS011;5797;51.662;6.748;2023-06-14T04:29:02;4.87;;;2.90;;
11481;SDS011;5797;51.662;6.748;2023-06-14T04:31:37;4.57;;;3.10;;
11481;SDS011;5797;51.662;6.748;2023-06-14T04:34:08;10.70;;;4.50;;
11481;SDS011;5797;51.662;6.748;2023-06-14T04:36:51;4.33;;;3.17;;
11481;SDS011;5797;51.662;6.748;2023-06-14T04:39:28;5.47;;;3.27;;
11481;SDS011;5797;51.662;6.748;2023-06-14T04:41:58;4.60;;;2.80;;
11481;SDS011;5797;51.662;6.748;2023-06-14T04:44:27;11.20;;;3.87;;
11481;SDS011;5797;51.662;6.748;2023-06-14T04:47:01;7.43;;;3.20;;
11481;SDS011;5797;51.662;6.748;2023-06-14T04:49:31;4.47;;;2.97;;
11481;SDS011;5797;51.662;6.748;2023-06-14T04:52:02;4.23;;;3.30;;
11481;SDS011;5797;51.662;6.748;2023-06-14T04:54:35;4.40;;;2.90;;
11481;SDS011;5797;51.662;6.748;2023-06-14T04:57:06;4.63;;;3.30;;
11481;SDS011;5797;51.662;6.748;2023-06-14T04:59:36;6.23;;;2.97;;
11481;SDS011;5797;51.662;6.748;2023-06-14T05:02:04;3.97;;;2.80;;
11481;SDS011;5797;51.662;6.748;2023-06-14T05:04:34;5.03;;;2.90;;
11481;SDS011;5797;51.662;6.748;2023-06-14T05:07:08;6.43;;;3.37;;
11481;SDS011;5797;51.662;6.748;2023-06-14T05:09:37;3.30;;;2.80;;
11481;SDS011;5797;51.662;6.748;2023-06-14T05:12:06;3.80;;;3.03;;
11481;SDS011;5797;51.662;6.748;2023-06-14T05:14:36;3.67;;;2.80;;
11481;SDS011;5797;51.662;6.748;2023-06-14T05:17:07;6.87;;;3.30;;
11481;SDS011;5797;51.662;6.748;2023-06-14T05:19:36;6.30;;;3.00;;
11481;SDS011;5797;51.662;6.748;2023-06-14T05:22:05;3.33;;;2.90;;
11481;SDS011;5797;51.662;6.748;2023-06-14T05:24:35;10.03;;;3.43;;
11481;SDS011;5797;51.662;6.748;2023-06-14T05:27:05;3.77;;;2.90;;
11481;SDS011;5797;51.662;6.748;2023-06-14T05:29:35;6.47;;;3.10;;
11481;SDS011;5797;51.662;6.748;2023-06-14T05:32:04;5.97;;;2.90;;
11481;SDS011;5797;51.662;6.748;2023-06-14T05:34:33;5.00;;;3.13;;
11481;SDS011;5797;51.662;6.748;2023-06-14T05:37:02;7.27;;;3.17;;
11481;SDS011;5797;51.662;6.748;2023-06-14T05:39:32;5.93;;;3.33;;
11481;SDS011;5797;51.662;6.748;2023-06-14T05:42:02;4.40;;;2.83;;
11481;SDS011;5797;51.662;6.748;2023-06-14T05:44:33;7.73;;;2.83;;
11481;SDS011;5797;51.662;6.748;2023-06-14T05:47:01;4.63;;;2.73;;
11481;SDS011;5797;51.662;6.748;2023-06-14T05:49:30;3.43;;;2.60;;
11481;SDS011;5797;51.662;6.748;2023-06-14T05:51:59;4.27;;;3.30;;
11481;SDS011;5797;51.662;6.748;2023-06-14T05:54:28;5.23;;;3.40;;
11481;SDS011;5797;51.662;6.748;2023-06-14T05:56:56;10.40;;;3.20;;
11481;SDS011;5797;51.662;6.748;2023-06-14T05:59:30;5.27;;;2.80;;
11481;SDS011;5797;51.662;6.748;2023-06-14T06:01:59;5.83;;;2.83;;
11481;SDS011;5797;51.662;6.748;2023-06-14T06:04:28;5.17;;;3.13;;
11481;SDS011;5797;51.662;6.748;2023-06-14T06:06:58;4.23;;;2.93;;
11481;SDS011;5797;51.662;6.748;2023-06-14T06:09:26;3.47;;;2.90;;
11481;SDS011;5797;51.662;6.748;2023-06-14T06:11:55;11.20;;;3.63;;
11481;SDS011;5797;51.662;6.748;2023-06-14T06:14:23;7.63;;;2.90;;
11481;SDS011;5797;51.662;6.748;2023-06-14T06:16:53;5.03;;;2.90;;
11481;SDS011;5797;51.662;6.748;2023-06-14T06:19:23;4.73;;;3.03;;
11481;SDS011;5797;51.662;6.748;2023-06-14T06:21:53;7.43;;;2.87;;
11481;SDS011;5797;51.662;6.748;2023-06-14T06:24:21;5.30;;;2.73;;
11481;SDS011;5797;51.662;6.748;2023-06-14T06:26:51;5.93;;;3.20;;
11481;SDS011;5797;51.662;6.748;2023-06-14T06:29:20;3.37;;;2.70;;
11481;SDS011;5797;51.662;6.748;2023-06-14T06:31:49;5.50;;;3.07;;
11481;SDS011;5797;51.662;6.748;2023-06-14T06:36:51;4.67;;;2.60;;
11481;SDS011;5797;51.662;6.748;2023-06-14T06:39:20;4.60;;;2.70;;
11481;SDS011;5797;51.662;6.748;2023-06-14T06:41:48;4.80;;;2.60;;
11481;SDS011;5797;51.662;6.748;2023-06-14T06:44:26;4.47;;;2.80;;
11481;SDS011;5797;51.662;6.748;2023-06-14T06:46:56;10.93;;;3.13;;
11481;SDS011;5797;51.662;6.748;2023-06-14T06:49:27;3.93;;;2.77;;
11481;SDS011;5797;51.662;6.748;2023-06-14T06:51:58;2.93;;;2.30;;
11481;SDS011;5797;51.662;6.748;2023-06-14T06:54:29;5.00;;;2.90;;
11481;SDS011;5797;51.662;6.748;2023-06-14T06:56:58;4.37;;;2.50;;
11481;SDS011;5797;51.662;6.748;2023-06-14T07:02:00;3.87;;;2.80;;
11481;SDS011;5797;51.662;6.748;2023-06-14T07:04:30;3.33;;;2.53;;
11481;SDS011;5797;51.662;6.748;2023-06-14T07:06:58;3.43;;;2.53;;
11481;SDS011;5797;51.662;6.748;2023-06-14T07:09:27;2.57;;;2.33;;
11481;SDS011;5797;51.662;6.748;2023-06-14T07:11:56;6.40;;;2.53;;
11481;SDS011;5797;51.662;6.748;2023-06-14T07:14:24;9.40;;;2.33;;
11481;SDS011;5797;51.662;6.748;2023-06-14T07:16:53;3.80;;;2.40;;
11481;SDS011;5797;51.662;6.748;2023-06-14T07:19:22;3.87;;;2.67;;
11481;SDS011;5797;51.662;6.748;2023-06-14T07:21:52;3.10;;;2.30;;
11481;SDS011;5797;51.662;6.748;2023-06-14T07:24:20;3.10;;;2.40;;
11481;SDS011;5797;51.662;6.748;2023-06-14T07:26:49;4.30;;;2.63;;
11481;SDS011;5797;51.662;6.748;2023-06-14T07:29:18;6.77;;;2.60;;
11481;SDS011;5797;51.662;6.748;2023-06-14T07:31:47;4.53;;;2.77;;
11481;SDS011;5797;51.662;6.748;2023-06-14T07:34:15;4.17;;;2.40;;
11481;SDS011;5797;51.662;6.748;2023-06-14T07:36:44;2.80;;;2.40;;
11481;SDS011;5797;51.662;6.748;2023-06-14T07:39:14;4.13;;;2.33;;
11481;SDS011;5797;51.662;6.748;2023-06-14T07:41:43;4.57;;;2.50;;
11481;SDS011;5797;51.662;6.748;2023-06-14T07:44:12;6.00;;;3.17;;
11481;SDS011;5797;51.662;6.748;2023-06-14T07:46:40;6.80;;;2.60;;
11481;SDS011;5797;51.662;6.748;2023-06-14T07:49:10;2.70;;;2.43;;
11481;SDS011;5797;51.662;6.748;2023-06-14T07:51:39;7.77;;;2.03;;
11481;SDS011;5797;51.662;6.748;2023-06-14T07:54:08;3.47;;;2.10;;
11481;SDS011;5797;51.662;6.748;2023-06-14T07:56:38;3.27;;;2.50;;
11481;SDS011;5797;51.662;6.748;2023-06-14T07:59:09;4.50;;;2.17;;
11481;SDS011;5797;51.662;6.748;2023-06-14T08:01:38;2.10;;;1.83;;
11481;SDS011;5797;51.662;6.748;2023-06-14T08:04:07;2.40;;;2.20;;
11481;SDS011;5797;51.662;6.748;2023-06-14T08:06:35;3.53;;;2.30;;
11481;SDS011;5797;51.662;6.748;2023-06-14T08:09:04;5.33;;;2.80;;
11481;SDS011;5797;51.662;6.748;2023-06-14T08:11:38;2.70;;;2.50;;
11481;SDS011;5797;51.662;6.748;2023-06-14T08:14:08;6.40;;;2.60;;
11481;SDS011;5797;51.662;6.748;2023-06-14T08:16:36;6.28;;;2.72;;
11481;SDS011;5797;51.662;6.748;2023-06-14T08:19:05;3.38;;;2.50;;
11481;SDS011;5797;51.662;6.748;2023-06-14T08:21:37;3.88;;;2.38;;
11481;SDS011;5797;51.662;6.748;2023-06-14T08:24:07;3.45;;;2.60;;
11481;SDS011;5797;51.662;6.748;2023-06-14T08:26:38;2.50;;;2.20;;
11481;SDS011;5797;51.662;6.748;2023-06-14T08:29:07;3.60;;;2.42;;
11481;SDS011;5797;51.662;6.748;2023-06-14T08:31:36;5.93;;;2.42;;
11481;SDS011;5797;51.662;6.748;2023-06-14T08:34:04;5.63;;;2.70;;
11481;SDS011;5797;51.662;6.748;2023-06-14T08:36:34;4.68;;;2.17;;
11481;SDS011;5797;51.662;6.748;2023-06-14T08:39:03;3.60;;;2.55;;
11481;SDS011;5797;51.662;6.748;2023-06-14T08:41:32;3.50;;;2.20;;
11481;SDS011;5797;51.662;6.748;2023-06-14T08:44:02;2.78;;;2.20;;
11481;SDS011;5797;51.662;6.748;2023-06-14T08:46:32;2.50;;;2.20;;
11481;SDS011;5797;51.662;6.748;2023-06-14T08:49:02;2.55;;;2.28;;
11481;SDS011;5797;51.662;6.748;2023-06-14T08:51:32;2.97;;;2.25;;
11481;SDS011;5797;51.662;6.748;2023-06-14T08:54:02;4.57;;;2.15;;
11481;SDS011;5797;51.662;6.748;2023-06-14T08:56:31;2.42;;;2.10;;
11481;SDS011;5797;51.662;6.748;2023-06-14T08:59:04;2.63;;;2.33;;
11481;SDS011;5797;51.662;6.748;2023-06-14T09:01:36;2.72;;;2.20;;
11481;SDS011;5797;51.662;6.748;2023-06-14T09:04:05;3.50;;;2.28;;
11481;SDS011;5797;51.662;6.748;2023-06-14T09:06:34;2.83;;;2.20;;
11481;SDS011;5797;51.662;6.748;2023-06-14T09:09:04;3.17;;;2.22;;
11481;SDS011;5797;51.662;6.748;2023-06-14T09:11:33;3.63;;;2.00;;
11481;SDS011;5797;51.662;6.748;2023-06-14T09:14:04;2.95;;;2.00;;
11481;SDS011;5797;51.662;6.748;2023-06-14T09:16:33;2.63;;;2.17;;
11481;SDS011;5797;51.662;6.748;2023-06-14T09:19:03;5.65;;;2.40;;
11481;SDS011;5797;51.662;6.748;2023-06-14T09:21:33;2.70;;;2.05;;
11481;SDS011;5797;51.662;6.748;2023-06-14T09:24:03;4.45;;;2.03;;
11481;SDS011;5797;51.662;6.748;2023-06-14T09:26:32;3.85;;;2.17;;
11481;SDS011;5797;51.662;6.748;2023-06-14T09:29:01;3.60;;;2.05;;
11481;SDS011;5797;51.662;6.748;2023-06-14T09:31:31;3.03;;;2.00;;
11481;SDS011;5797;51.662;6.748;2023-06-14T09:34:01;3.03;;;2.17;;
11481;SDS011;5797;51.662;6.748;2023-06-14T09:36:31;2.25;;;1.70;;
11481;SDS011;5797;51.662;6.748;2023-06-14T09:39:01;2.95;;;2.10;;
11481;SDS011;5797;51.662;6.748;2023-06-14T09:41:33;2.10;;;1.80;;
11481;SDS011;5797;51.662;6.748;2023-06-14T09:44:03;3.17;;;2.30;;
11481;SDS011;5797;51.662;6.748;2023-06-14T09:46:37;2.58;;;2.08;;
11481;SDS011;5797;51.662;6.748;2023-06-14T09:49:08;2.35;;;1.83;;
11481;SDS011;5797;51.662;6.748;2023-06-14T09:51:36;2.88;;;1.98;;
11481;SDS011;5797;51.662;6.748;2023-06-14T09:54:14;3.03;;;1.60;;
11481;SDS011;5797;51.662;6.748;2023-06-14T09:56:44;3.40;;;1.63;;
11481;SDS011;5797;51.662;6.748;2023-06-14T09:59:13;2.03;;;1.73;;
11481;SDS011;5797;51.662;6.748;2023-06-14T10:01:46;2.58;;;1.73;;
11481;SDS011;5797;51.662;6.748;2023-06-14T10:04:15;1.80;;;1.58;;
11481;SDS011;5797;51.662;6.748;2023-06-14T10:06:47;7.90;;;1.77;;
11481;SDS011;5797;51.662;6.748;2023-06-14T10:09:16;2.80;;;1.95;;
11481;SDS011;5797;51.662;6.748;2023-06-14T10:11:44;7.32;;;1.90;;
11481;SDS011;5797;51.662;6.748;2023-06-14T10:14:14;1.80;;;1.67;;
11481;SDS011;5797;51.662;6.748;2023-06-14T10:16:45;2.50;;;1.63;;
11481;SDS011;5797;51.662;6.748;2023-06-14T10:19:18;4.85;;;1.75;;
11481;SDS011;5797;51.662;6.748;2023-06-14T10:21:51;6.88;;;1.60;;
11481;SDS011;5797;51.662;6.748;2023-06-14T10:24:25;2.58;;;1.80;;
11481;SDS011;5797;51.662;6.748;2023-06-14T10:26:58;2.17;;;1.98;;
11481;SDS011;5797;51.662;6.748;2023-06-14T10:29:28;1.77;;;1.58;;
11481;SDS011;5797;51.662;6.748;2023-06-14T10:32:02;2.40;;;1.73;;
11481;SDS011;5797;51.662;6.748;2023-06-14T10:34:31;1.70;;;1.50;;
11481;SDS011;5797;51.662;6.748;2023-06-14T10:37:00;2.55;;;1.60;;
11481;SDS011;5797;51.662;6.748;2023-06-14T10:39:31;1.50;;;1.40;;
11481;SDS011;5797;51.662;6.748;2023-06-14T10:42:01;3.40;;;1.52;;
11481;SDS011;5797;51.662;6.748;2023-06-14T10:44:32;8.18;;;1.70;;
11481;SDS011;5797;51.662;6.748;2023-06-14T10:47:10;3.50;;;1.55;;
11481;SDS011;5797;51.662;6.748;2023-06-14T10:49:49;1.50;;;1.40;;
11481;SDS011;5797;51.662;6.748;2023-06-14T10:52:24;1.50;;;1.40;;
11481;SDS011;5797;51.662;6.748;2023-06-14T10:55:08;3.83;;;1.48;;
11481;SDS011;5797;51.662;6.748;2023-06-14T10:57:39;2.58;;;1.67;;
11481;SDS011;5797;51.662;6.748;2023-06-14T11:00:12;3.28;;;1.40;;
11481;SDS011;5797;51.662;6.748;2023-06-14T11:05:50;2.97;;;1.63;;
11481;SDS011;5797;51.662;6.748;2023-06-14T11:11:31;1.40;;;1.30;;
11481;SDS011;5797;51.662;6.748;2023-06-14T11:14:01;1.88;;;1.55;;
11481;SDS011;5797;51.662;6.748;2023-06-14T11:16:30;2.70;;;1.70;;
11481;SDS011;5797;51.662;6.748;2023-06-14T11:19:00;1.85;;;1.42;;
11481;SDS011;5797;51.662;6.748;2023-06-14T11:21:33;4.00;;;1.65;;
11481;SDS011;5797;51.662;6.748;2023-06-14T11:24:02;2.25;;;1.60;;
11481;SDS011;5797;51.662;6.748;2023-06-14T11:26:31;1.60;;;1.50;;
11481;SDS011;5797;51.662;6.748;2023-06-14T11:29:01;2.20;;;1.60;;
11481;SDS011;5797;51.662;6.748;2023-06-14T11:31:30;2.15;;;1.60;;
11481;SDS011;5797;51.662;6.748;2023-06-14T11:33:59;1.92;;;1.67;;
11481;SDS011;5797;51.662;6.748;2023-06-14T11:36:29;4.55;;;1.60;;
11481;SDS011;5797;51.662;6.748;2023-06-14T11:39:00;1.80;;;1.70;;
11481;SDS011;5797;51.662;6.748;2023-06-14T11:41:34;1.60;;;1.50;;
11481;SDS011;5797;51.662;6.748;2023-06-14T11:44:05;2.13;;;1.38;;
11481;SDS011;5797;51.662;6.748;2023-06-14T11:46:35;1.65;;;1.55;;
11481;SDS011;5797;51.662;6.748;2023-06-14T11:49:04;1.67;;;1.58;;
11481;SDS011;5797;51.662;6.748;2023-06-14T11:51:35;2.65;;;1.73;;
11481;SDS011;5797;51.662;6.748;2023-06-14T11:54:06;1.80;;;1.70;;
11481;SDS011;5797;51.662;6.748;2023-06-14T11:56:36;1.70;;;1.60;;
11481;SDS011;5797;51.662;6.748;2023-06-14T11:59:07;2.05;;;1.80;;
11481;SDS011;5797;51.662;6.748;2023-06-14T12:01:37;9.73;;;2.40;;
11481;SDS011;5797;51.662;6.748;2023-06-14T12:04:07;1.83;;;1.63;;
11481;SDS011;5797;51.662;6.748;2023-06-14T12:06:36;1.70;;;1.60;;
11481;SDS011;5797;51.662;6.748;2023-06-14T12:09:10;3.03;;;1.70;;
11481;SDS011;5797;51.662;6.748;2023-06-14T12:11:46;1.77;;;1.65;;
11481;SDS011;5797;51.662;6.748;2023-06-14T12:14:17;1.92;;;1.73;;
11481;SDS011;5797;51.662;6.748;2023-06-14T12:16:48;3.45;;;2.60;;
11481;SDS011;5797;51.662;6.748;2023-06-14T12:19:18;3.55;;;2.00;;
11481;SDS011;5797;51.662;6.748;2023-06-14T12:21:47;2.28;;;1.73;;
11481;SDS011;5797;51.662;6.748;2023-06-14T12:24:19;2.25;;;1.90;;
11481;SDS011;5797;51.662;6.748;2023-06-14T12:26:48;2.08;;;1.95;;
11481;SDS011;5797;51.662;6.748;2023-06-14T12:29:19;1.67;;;1.58;;
11481;SDS011;5797;51.662;6.748;2023-06-14T12:31:48;4.30;;;1.90;;
11481;SDS011;5797;51.662;6.748;2023-06-14T12:34:17;3.22;;;1.92;;
11481;SDS011;5797;51.662;6.748;2023-06-14T12:36:46;3.10;;;1.90;;
11481;SDS011;5797;51.662;6.748;2023-06-14T12:39:16;2.78;;;1.77;;
11481;SDS011;5797;51.662;6.748;2023-06-14T12:41:46;2.38;;;1.80;;
11481;SDS011;5797;51.662;6.748;2023-06-14T12:44:16;2.00;;;1.90;;
11481;SDS011;5797;51.662;6.748;2023-06-14T12:46:45;1.98;;;1.85;;
11481;SDS011;5797;51.662;6.748;2023-06-14T12:49:14;3.65;;;1.85;;
11481;SDS011;5797;51.662;6.748;2023-06-14T12:51:43;2.03;;;1.88;;
11481;SDS011;5797;51.662;6.748;2023-06-14T12:54:12;2.10;;;1.90;;
11481;SDS011;5797;51.662;6.748;2023-06-14T12:56:41;4.68;;;1.90;;
11481;SDS011;5797;51.662;6.748;2023-06-14T12:59:13;2.08;;;1.88;;
11481;SDS011;5797;51.662;6.748;2023-06-14T13:01:43;3.95;;;1.90;;
11481;SDS011;5797;51.662;6.748;2023-06-14T13:04:16;2.22;;;2.00;;
11481;SDS011;5797;51.662;6.748;2023-06-14T13:06:47;2.03;;;1.83;;
11481;SDS011;5797;51.662;6.748;2023-06-14T13:09:18;2.25;;;2.05;;
11481;SDS011;5797;51.662;6.748;2023-06-14T13:11:51;2.97;;;2.15;;
11481;SDS011;5797;51.662;6.748;2023-06-14T13:14:26;3.13;;;2.00;;
11481;SDS011;5797;51.662;6.748;2023-06-14T13:16:59;2.33;;;1.98;;
11481;SDS011;5797;51.662;6.748;2023-06-14T13:19:30;2.65;;;2.20;;
11481;SDS011;5797;51.662;6.748;2023-06-14T13:22:04;2.95;;;2.00;;
11481;SDS011;5797;51.662;6.748;2023-06-14T13:24:34;2.50;;;2.30;;
11481;SDS011;5797;51.662;6.748;2023-06-14T13:27:04;3.35;;;2.63;;
11481;SDS011;5797;51.662;6.748;2023-06-14T13:29:35;4.90;;;2.30;;
11481;SDS011;5797;51.662;6.748;2023-06-14T13:32:05;2.78;;;2.20;;
11481;SDS011;5797;51.662;6.748;2023-06-14T13:34:35;6.85;;;2.20;;
11481;SDS011;5797;51.662;6.748;2023-06-14T13:37:04;2.30;;;2.10;;
11481;SDS011;5797;51.662;6.748;2023-06-14T13:39:33;2.58;;;2.38;;
11481;SDS011;5797;51.662;6.748;2023-06-14T13:42:04;8.57;;;2.30;;
11481;SDS011;5797;51.662;6.748;2023-06-14T13:44:33;2.58;;;2.30;;
11481;SDS011;5797;51.662;6.748;2023-06-14T13:47:04;3.33;;;2.40;;
11481;SDS011;5797;51.662;6.748;2023-06-14T13:49:34;3.42;;;2.53;;
11481;SDS011;5797;51.662;6.748;2023-06-14T13:52:03;4.43;;;2.35;;
11481;SDS011;5797;51.662;6.748;2023-06-14T13:54:33;3.13;;;2.42;;
11481;SDS011;5797;51.662;6.748;2023-06-14T13:57:01;2.38;;;2.17;;
11481;SDS011;5797;51.662;6.748;2023-06-14T13:59:31;4.35;;;2.20;;
11481;SDS011;5797;51.662;6.748;2023-06-14T14:02:00;3.85;;;2.40;;
11481;SDS011;5797;51.662;6.748;2023-06-14T14:04:32;4.07;;;2.80;;
11481;SDS011;5797;51.662;6.748;2023-06-14T14:07:02;4.28;;;2.75;;
11481;SDS011;5797;51.662;6.748;2023-06-14T14:09:33;2.63;;;2.42;;
11481;SDS011;5797;51.662;6.748;2023-06-14T14:12:06;6.45;;;2.70;;
11481;SDS011;5797;51.662;6.748;2023-06-14T14:14:35;2.58;;;2.20;;
11481;SDS011;5797;51.662;6.748;2023-06-14T14:17:05;2.78;;;2.58;;
11481;SDS011;5797;51.662;6.748;2023-06-14T14:19:36;2.83;;;2.38;;
11481;SDS011;5797;51.662;6.748;2023-06-14T14:22:05;3.05;;;2.75;;
11481;SDS011;5797;51.662;6.748;2023-06-14T14:24:34;2.80;;;2.50;;
11481;SDS011;5797;51.662;6.748;2023-06-14T14:27:04;2.60;;;2.40;;
11481;SDS011;5797;51.662;6.748;2023-06-14T14:29:33;3.08;;;2.78;;
11481;SDS011;5797;51.662;6.748;2023-06-14T14:32:03;3.58;;;2.70;;
11481;SDS011;5797;51.662;6.748;2023-06-14T14:34:32;3.00;;;2.75;;
11481;SDS011;5797;51.662;6.748;2023-06-14T14:37:03;2.85;;;2.60;;
11481;SDS011;5797;51.662;6.748;2023-06-14T14:39:32;3.35;;;2.58;;
11481;SDS011;5797;51.662;6.748;2023-06-14T14:42:01;6.10;;;2.80;;
11481;SDS011;5797;51.662;6.748;2023-06-14T14:44:32;4.22;;;2.60;;
11481;SDS011;5797;51.662;6.748;2023-06-14T14:47:01;4.35;;;2.75;;
11481;SDS011;5797;51.662;6.748;2023-06-14T14:49:31;3.63;;;2.95;;
11481;SDS011;5797;51.662;6.748;2023-06-14T14:52:00;2.97;;;2.75;;
11481;SDS011;5797;51.662;6.748;2023-06-14T14:54:46;5.28;;;2.97;;
11481;SDS011;5797;51.662;6.748;2023-06-14T14:57:15;3.28;;;2.97;;
11481;SDS011;5797;51.662;6.748;2023-06-14T14:59:44;4.85;;;3.10;;
11481;SDS011;5797;51.662;6.748;2023-06-14T15:02:12;2.90;;;2.70;;
11481;SDS011;5797;51.662;6.748;2023-06-14T15:04:41;3.42;;;3.00;;
11481;SDS011;5797;51.662;6.748;2023-06-14T15:07:10;4.60;;;3.03;;
11481;SDS011;5797;51.662;6.748;2023-06-14T15:09:39;3.28;;;2.90;;
11481;SDS011;5797;51.662;6.748;2023-06-14T15:14:34;5.07;;;3.88;;
11481;SDS011;5797;51.662;6.748;2023-06-14T15:17:06;10.15;;;2.97;;
11481;SDS011;5797;51.662;6.748;2023-06-14T15:19:34;5.28;;;3.10;;
11481;SDS011;5797;51.662;6.748;2023-06-14T15:22:03;3.47;;;3.17;;
11481;SDS011;5797;51.662;6.748;2023-06-14T15:24:32;3.78;;;3.15;;
11481;SDS011;5797;51.662;6.748;2023-06-14T15:27:09;3.10;;;2.90;;
11481;SDS011;5797;51.662;6.748;2023-06-14T15:29:40;3.30;;;3.00;;
11481;SDS011;5797;51.662;6.748;2023-06-14T15:32:09;3.33;;;3.03;;